createdAt,value
2023-03-29T00:00:45.846Z,2
2023-03-29T00:01:46.252Z,2
2023-03-29T00:02:46.722Z,2
2023-03-29T00:03:47.595Z,2
2023-03-29T00:04:48.003Z,2
2023-03-29T00:05:48.392Z,2
2023-03-29T00:06:49.110Z,2
2023-03-29T00:07:49.510Z,2
2023-03-29T00:08:50.198Z,2
2023-03-29T00:09:50.759Z,2
2023-03-29T00:10:51.138Z,2
2023-03-29T00:11:51.501Z,2
2023-03-29T00:12:51.876Z,2
2023-03-29T00:13:52.721Z,2
2023-03-29T00:14:53.107Z,2
2023-03-29T00:15:53.486Z,2
2023-03-29T00:16:53.965Z,2
2023-03-29T00:17:54.489Z,2
2023-03-29T00:18:55.393Z,2.1
2023-03-29T00:19:55.785Z,2.1
2023-03-29T00:20:56.168Z,2
2023-03-29T00:21:56.839Z,2
2023-03-29T00:22:57.236Z,2
2023-03-29T00:23:57.930Z,2
2023-03-29T00:24:58.326Z,2
2023-03-29T00:25:58.702Z,2
2023-03-29T00:26:59.068Z,2.1
2023-03-29T00:27:59.453Z,2.1
2023-03-29T00:29:00.236Z,2.1
2023-03-29T00:30:00.629Z,2.1
2023-03-29T00:31:01.238Z,2.1
2023-03-29T00:32:01.817Z,2.1
2023-03-29T00:33:02.286Z,2.1
2023-03-29T00:34:03.214Z,2.1
2023-03-29T00:35:03.597Z,2.1
2023-03-29T00:36:04.084Z,2.1
2023-03-29T00:37:04.939Z,2.1
2023-03-29T00:38:05.329Z,2.1
2023-03-29T00:39:06.025Z,2.1
2023-03-29T00:40:06.407Z,2.1
2023-03-29T00:41:06.801Z,2.1
2023-03-29T00:42:07.197Z,2.1
2023-03-29T00:43:07.583Z,2.1
2023-03-29T00:44:08.394Z,2.1
2023-03-29T00:45:08.784Z,2.1
2023-03-29T00:46:09.254Z,2.1
2023-03-29T00:47:09.649Z,2.1
2023-03-29T00:48:10.085Z,2.1
2023-03-29T00:49:10.809Z,2.1
2023-03-29T00:50:11.213Z,2.1
2023-03-29T00:51:11.637Z,2.1
2023-03-29T00:52:12.062Z,2.1
2023-03-29T00:53:12.497Z,2.1
2023-03-29T00:54:13.324Z,2.1
2023-03-29T00:55:13.717Z,2.1
2023-03-29T00:56:14.204Z,2.1
2023-03-29T00:57:14.734Z,2.1
2023-03-29T00:58:15.190Z,2.1
2023-03-29T00:59:15.934Z,2.1
2023-03-29T01:00:16.385Z,2.1
2023-03-29T01:01:16.773Z,2.1
2023-03-29T01:02:17.211Z,2.1
2023-03-29T01:03:17.726Z,2.1
2023-03-29T01:04:18.633Z,2.1
2023-03-29T01:05:19.112Z,2.1
2023-03-29T01:06:19.496Z,2.2
2023-03-29T01:07:20.183Z,2.2
2023-03-29T01:08:20.567Z,2.2
2023-03-29T01:09:21.398Z,2.2
2023-03-29T01:10:21.779Z,2.2
2023-03-29T01:11:22.191Z,2.2
2023-03-29T01:12:22.582Z,2.2
2023-03-29T01:13:22.968Z,2.2
2023-03-29T01:14:23.749Z,2.2
2023-03-29T01:15:24.119Z,2.2
2023-03-29T01:16:24.553Z,2.2
2023-03-29T01:17:24.968Z,2.2
2023-03-29T01:18:25.426Z,2.2
2023-03-29T01:19:26.047Z,2.2
2023-03-29T01:20:26.430Z,2.2
2023-03-29T01:21:26.801Z,2.2
2023-03-29T01:22:27.219Z,2.2
2023-03-29T01:23:27.614Z,2.2
2023-03-29T01:24:28.380Z,2.2
2023-03-29T01:25:28.753Z,2.2
2023-03-29T01:26:29.165Z,2.2
2023-03-29T01:27:29.542Z,2.2
2023-03-29T01:28:29.889Z,2.2
2023-03-29T01:29:30.593Z,2.2
2023-03-29T01:30:30.980Z,2.2
2023-03-29T01:31:31.391Z,2.2
2023-03-29T01:32:31.810Z,2.2
2023-03-29T01:33:32.171Z,2.2
2023-03-29T01:34:32.863Z,2.2
2023-03-29T01:35:33.255Z,2.2
2023-03-29T01:36:33.641Z,2.2
2023-03-29T01:37:34.050Z,2.2
2023-03-29T01:38:34.431Z,2.2
2023-03-29T01:39:35.230Z,2.2
2023-03-29T01:40:35.617Z,2.2
2023-03-29T01:41:36.010Z,2.2
2023-03-29T01:42:36.389Z,2.2
2023-03-29T01:43:36.776Z,2.2
2023-03-29T01:44:37.504Z,2.2
2023-03-29T01:45:37.908Z,2.2
2023-03-29T01:46:38.307Z,2.2
2023-03-29T01:47:38.776Z,2.2
2023-03-29T01:48:39.222Z,2.2
2023-03-29T01:49:40.019Z,2.2
2023-03-29T01:50:40.402Z,2.2
2023-03-29T01:51:40.778Z,2.2
2023-03-29T01:52:41.643Z,2.2
2023-03-29T01:53:42.056Z,2.2
2023-03-29T01:54:42.899Z,2.2
2023-03-29T01:55:43.284Z,2.2
2023-03-29T01:56:43.700Z,2.2
2023-03-29T01:57:44.093Z,2.2
2023-03-29T01:58:44.474Z,2.2
2023-03-29T01:59:45.215Z,2.2
2023-03-29T02:00:45.607Z,2.2
2023-03-29T02:01:46.068Z,2.2
2023-03-29T02:02:46.531Z,2.2
2023-03-29T02:03:46.989Z,2.3
2023-03-29T02:04:47.713Z,2.3
2023-03-29T02:05:48.103Z,2.3
2023-03-29T02:06:48.492Z,2.3
2023-03-29T02:07:49.208Z,2.3
2023-03-29T02:08:49.593Z,2.3
2023-03-29T02:09:50.270Z,2.3
2023-03-29T02:10:50.653Z,2.3
2023-03-29T02:11:51.035Z,2.3
2023-03-29T02:12:51.439Z,2.3
2023-03-29T02:13:51.819Z,2.3
2023-03-29T02:14:52.586Z,2.3
2023-03-29T02:15:53.122Z,2.3
2023-03-29T02:16:53.580Z,2.3
2023-03-29T02:17:53.984Z,2.3
2023-03-29T02:18:54.360Z,2.3
2023-03-29T02:19:55.170Z,2.3
2023-03-29T02:20:55.566Z,2.3
2023-03-29T02:21:55.957Z,2.3
2023-03-29T02:22:56.843Z,2.3
2023-03-29T02:23:57.235Z,2.3
2023-03-29T02:24:58.022Z,2.3
2023-03-29T02:25:58.392Z,2.3
2023-03-29T02:26:58.779Z,2.3
2023-03-29T02:27:59.157Z,2.3
2023-03-29T02:28:59.558Z,2.3
2023-03-29T02:30:00.294Z,2.3
2023-03-29T02:31:00.843Z,2.3
2023-03-29T02:32:01.446Z,2.3
2023-03-29T02:33:01.964Z,2.3
2023-03-29T02:34:02.476Z,2.3
2023-03-29T02:35:03.152Z,2.3
2023-03-29T02:36:03.608Z,2.3
2023-03-29T02:37:04.130Z,2.3
2023-03-29T02:38:05.028Z,2.3
2023-03-29T02:39:05.402Z,2.3
2023-03-29T02:40:06.316Z,2.3
2023-03-29T02:41:06.710Z,2.3
2023-03-29T02:42:07.111Z,2.3
2023-03-29T02:43:07.493Z,2.3
2023-03-29T02:44:07.867Z,2.3
2023-03-29T02:45:08.666Z,2.3
2023-03-29T02:46:09.074Z,2.4
2023-03-29T02:47:09.497Z,2.4
2023-03-29T02:48:09.960Z,2.4
2023-03-29T02:49:10.408Z,2.4
2023-03-29T02:50:11.207Z,2.4
2023-03-29T02:51:11.591Z,2.4
2023-03-29T02:52:11.973Z,2.4
2023-03-29T02:53:12.646Z,2.4
2023-03-29T02:54:13.034Z,2.5
2023-03-29T02:55:13.855Z,2.5
2023-03-29T02:56:14.240Z,2.5
2023-03-29T02:57:14.638Z,2.5
2023-03-29T02:58:15.052Z,2.5
2023-03-29T02:59:15.446Z,2.5
2023-03-29T03:00:16.438Z,2.5
2023-03-29T03:01:16.829Z,2.5
2023-03-29T03:02:17.293Z,2.5
2023-03-29T03:03:17.800Z,2.5
2023-03-29T03:04:18.275Z,2.5
2023-03-29T03:05:19.021Z,2.5
2023-03-29T03:06:19.410Z,2.4
2023-03-29T03:07:19.793Z,2.4
2023-03-29T03:08:20.396Z,2.4
2023-03-29T03:09:20.788Z,2.4
2023-03-29T03:10:21.461Z,2.4
2023-03-29T03:11:21.854Z,2.4
2023-03-29T03:12:22.680Z,2.5
2023-03-29T03:13:23.063Z,2.5
2023-03-29T03:14:23.466Z,2.5
2023-03-29T03:15:24.289Z,2.5
2023-03-29T03:16:24.743Z,2.5
2023-03-29T03:17:25.215Z,2.5
2023-03-29T03:18:25.680Z,2.5
2023-03-29T03:19:26.054Z,2.5
2023-03-29T03:20:26.982Z,2.5
2023-03-29T03:21:27.370Z,2.5
2023-03-29T03:22:27.764Z,2.5
2023-03-29T03:23:28.436Z,2.5
2023-03-29T03:24:28.783Z,2.5
2023-03-29T03:25:29.624Z,2.5
2023-03-29T03:26:30.196Z,2.5
2023-03-29T03:27:30.714Z,2.5
2023-03-29T03:28:31.087Z,2.5
2023-03-29T03:29:31.492Z,2.5
2023-03-29T03:30:32.261Z,2.5
2023-03-29T03:31:32.727Z,2.5
2023-03-29T03:32:33.136Z,2.5
2023-03-29T03:33:33.537Z,2.5
2023-03-29T03:34:33.995Z,2.5
2023-03-29T03:35:34.750Z,2.6
2023-03-29T03:36:35.159Z,2.6
2023-03-29T03:37:35.547Z,2.6
2023-03-29T03:38:36.442Z,2.6
2023-03-29T03:39:36.841Z,2.6
2023-03-29T03:40:37.501Z,2.6
2023-03-29T03:41:37.878Z,2.6
2023-03-29T03:42:38.256Z,2.6
2023-03-29T03:43:38.630Z,2.6
2023-03-29T03:44:38.970Z,2.6
2023-03-29T03:45:39.763Z,2.6
2023-03-29T03:46:40.178Z,2.6
2023-03-29T03:47:40.601Z,2.6
2023-03-29T03:48:41.010Z,2.6
2023-03-29T03:49:41.389Z,2.6
2023-03-29T03:50:42.088Z,2.6
2023-03-29T03:51:42.473Z,2.7
2023-03-29T03:52:42.858Z,2.7
2023-03-29T03:53:43.636Z,2.7
2023-03-29T03:54:44.023Z,2.7
2023-03-29T03:55:44.858Z,2.7
2023-03-29T03:56:45.330Z,2.7
2023-03-29T03:57:45.720Z,2.7
2023-03-29T03:58:46.090Z,2.7
2023-03-29T03:59:46.474Z,2.7
2023-03-29T04:00:47.156Z,2.7
2023-03-29T04:01:47.530Z,2.8
2023-03-29T04:02:47.994Z,2.8
2023-03-29T04:03:48.589Z,2.8
2023-03-29T04:04:49.078Z,2.8
2023-03-29T04:05:49.766Z,2.8
2023-03-29T04:06:50.155Z,2.8
2023-03-29T04:07:50.530Z,2.8
2023-03-29T04:08:51.206Z,2.8
2023-03-29T04:09:51.568Z,2.8
2023-03-29T04:10:52.234Z,2.8
2023-03-29T04:11:52.617Z,2.8
2023-03-29T04:12:53.025Z,2.8
2023-03-29T04:13:53.422Z,2.8
2023-03-29T04:14:53.810Z,2.8
2023-03-29T04:15:54.573Z,2.8
2023-03-29T04:16:54.990Z,2.8
2023-03-29T04:17:55.430Z,2.8
2023-03-29T04:18:56.000Z,2.8
2023-03-29T04:19:56.408Z,2.8
2023-03-29T04:20:57.196Z,2.8
2023-03-29T04:21:57.583Z,2.8
2023-03-29T04:22:57.979Z,2.8
2023-03-29T04:23:58.738Z,2.8
2023-03-29T04:24:59.126Z,2.8
2023-03-29T04:25:59.903Z,2.8
2023-03-29T04:27:00.302Z,2.8
2023-03-29T04:28:00.651Z,2.8
2023-03-29T04:29:01.014Z,2.8
2023-03-29T04:30:01.412Z,2.8
2023-03-29T04:31:02.472Z,2.8
2023-03-29T04:32:03.096Z,2.8
2023-03-29T04:33:03.514Z,2.8
2023-03-29T04:34:03.910Z,2.8
2023-03-29T04:35:04.308Z,2.8
2023-03-29T04:36:05.213Z,2.8
2023-03-29T04:37:05.675Z,2.8
2023-03-29T04:38:06.065Z,2.8
2023-03-29T04:39:06.742Z,2.8
2023-03-29T04:40:07.135Z,2.8
2023-03-29T04:41:08.001Z,2.8
2023-03-29T04:42:08.376Z,2.9
2023-03-29T04:43:08.768Z,2.9
2023-03-29T04:44:09.140Z,2.9
2023-03-29T04:45:09.545Z,2.9
2023-03-29T04:46:10.423Z,2.9
2023-03-29T04:47:10.879Z,2.9
2023-03-29T04:48:11.281Z,2.9
2023-03-29T04:49:11.703Z,2.9
2023-03-29T04:50:12.086Z,2.9
2023-03-29T04:51:12.804Z,2.9
2023-03-29T04:52:13.194Z,2.9
2023-03-29T04:53:13.589Z,2.9
2023-03-29T04:54:14.368Z,2.9
2023-03-29T04:55:14.763Z,2.9
2023-03-29T04:56:15.490Z,3
2023-03-29T04:57:15.891Z,3
2023-03-29T04:58:16.305Z,3
2023-03-29T04:59:16.681Z,3
2023-03-29T05:00:17.044Z,3
2023-03-29T05:01:18.113Z,3
2023-03-29T05:02:18.557Z,3
2023-03-29T05:03:18.985Z,3
2023-03-29T05:04:19.430Z,3
2023-03-29T05:05:19.860Z,3
2023-03-29T05:06:20.548Z,3
2023-03-29T05:07:20.972Z,3
2023-03-29T05:08:21.370Z,3
2023-03-29T05:09:22.229Z,3
2023-03-29T05:10:22.615Z,3
2023-03-29T05:11:23.425Z,3
2023-03-29T05:12:23.808Z,3
2023-03-29T05:13:24.194Z,3
2023-03-29T05:14:24.580Z,3
2023-03-29T05:15:24.964Z,3
2023-03-29T05:16:25.783Z,3
2023-03-29T05:17:26.270Z,3
2023-03-29T05:18:26.657Z,3
2023-03-29T05:19:27.042Z,3
2023-03-29T05:20:27.407Z,3
2023-03-29T05:21:28.206Z,3.1
2023-03-29T05:22:28.597Z,3.1
2023-03-29T05:23:28.986Z,3.1
2023-03-29T05:24:29.827Z,3.1
2023-03-29T05:25:30.230Z,3.1
2023-03-29T05:26:31.028Z,3.1
2023-03-29T05:27:31.434Z,3.1
2023-03-29T05:28:31.801Z,3.1
2023-03-29T05:29:32.142Z,3.1
2023-03-29T05:30:32.561Z,3.1
2023-03-29T05:31:33.293Z,3.1
2023-03-29T05:32:33.737Z,3.1
2023-03-29T05:33:34.162Z,3.1
2023-03-29T05:34:34.547Z,3.1
2023-03-29T05:35:34.944Z,3.1
2023-03-29T05:36:35.422Z,3.1
2023-03-29T05:37:35.811Z,3.1
2023-03-29T05:38:36.190Z,3.1
2023-03-29T05:39:37.726Z,3.1
2023-03-29T05:40:38.335Z,3.1
2023-03-29T05:41:39.127Z,3.1
2023-03-29T05:42:39.501Z,3.1
2023-03-29T05:43:39.874Z,3.1
2023-03-29T05:44:40.290Z,3.1
2023-03-29T05:45:40.719Z,3.1
2023-03-29T05:46:41.429Z,3.2
2023-03-29T05:47:41.890Z,3.2
2023-03-29T05:48:42.295Z,3.2
2023-03-29T05:49:42.676Z,3.2
2023-03-29T05:50:45.121Z,3.2
2023-03-29T05:51:46.908Z,3.2
2023-03-29T05:52:47.288Z,3.2
2023-03-29T05:53:47.671Z,3.2
2023-03-29T05:54:48.407Z,3.2
2023-03-29T05:55:48.789Z,3.2
2023-03-29T05:56:49.748Z,3.2
2023-03-29T05:57:50.157Z,3.2
2023-03-29T05:58:50.980Z,3.2
2023-03-29T05:59:52.737Z,3.2
2023-03-29T06:00:53.113Z,3.3
2023-03-29T06:01:53.590Z,3.3
2023-03-29T06:02:54.210Z,3.3
2023-03-29T06:03:54.916Z,3.3
2023-03-29T06:04:55.580Z,3.3
2023-03-29T06:05:56.033Z,3.3
2023-03-29T06:06:56.447Z,3.3
2023-03-29T06:07:56.838Z,3.4
2023-03-29T06:08:57.224Z,3.4
2023-03-29T06:09:58.095Z,3.4
2023-03-29T06:10:58.507Z,3.4
2023-03-29T06:11:58.931Z,3.4
2023-03-29T06:12:59.307Z,3.4
2023-03-29T06:13:59.804Z,3.4
2023-03-29T06:15:00.182Z,3.4
2023-03-29T06:16:00.543Z,3.4
2023-03-29T06:17:01.290Z,3.4
2023-03-29T06:18:01.823Z,3.4
2023-03-29T06:19:02.221Z,3.5
2023-03-29T06:20:02.613Z,3.5
2023-03-29T06:21:03.335Z,3.5
2023-03-29T06:22:04.327Z,3.5
2023-03-29T06:23:04.755Z,3.5
2023-03-29T06:24:05.162Z,3.5
2023-03-29T06:25:06.197Z,3.6
2023-03-29T06:26:06.583Z,3.6
2023-03-29T06:27:07.278Z,3.6
2023-03-29T06:28:07.661Z,3.6
2023-03-29T06:29:08.321Z,3.6
2023-03-29T06:30:08.711Z,3.6
2023-03-29T06:31:09.156Z,3.6
2023-03-29T06:32:10.010Z,3.6
2023-03-29T06:33:10.440Z,3.7
2023-03-29T06:34:10.874Z,3.7
2023-03-29T06:35:11.261Z,3.7
2023-03-29T06:36:11.674Z,3.7
2023-03-29T06:37:12.440Z,3.7
2023-03-29T06:38:12.844Z,3.7
2023-03-29T06:39:13.231Z,3.8
2023-03-29T06:40:14.078Z,3.8
2023-03-29T06:41:14.479Z,3.8
2023-03-29T06:42:21.082Z,3.8
2023-03-29T06:43:22.260Z,3.8
2023-03-29T06:44:22.639Z,3.8
2023-03-29T06:45:24.703Z,3.8
2023-03-29T06:46:26.183Z,3.8
2023-03-29T06:47:26.692Z,3.9
2023-03-29T06:48:27.088Z,3.9
2023-03-29T06:49:27.524Z,3.9
2023-03-29T06:50:28.062Z,3.9
2023-03-29T06:51:28.474Z,3.9
2023-03-29T06:52:28.894Z,4
2023-03-29T06:53:29.301Z,4
2023-03-29T06:54:29.688Z,4
2023-03-29T06:55:30.556Z,4
2023-03-29T06:56:30.928Z,4
2023-03-29T06:57:31.618Z,4.1
2023-03-29T06:58:31.965Z,4.1
2023-03-29T06:59:32.343Z,4.1
2023-03-29T07:00:32.738Z,4.1
2023-03-29T07:01:33.186Z,4.1
2023-03-29T07:02:33.918Z,4.2
2023-03-29T07:03:34.458Z,4.2
2023-03-29T07:04:34.951Z,4.2
2023-03-29T07:05:35.475Z,4.2
2023-03-29T07:06:35.860Z,4.3
2023-03-29T07:07:36.557Z,4.3
2023-03-29T07:08:36.974Z,4.3
2023-03-29T07:09:37.373Z,4.3
2023-03-29T07:10:37.793Z,4.3
2023-03-29T07:11:38.169Z,4.4
2023-03-29T07:12:38.579Z,4.4
2023-03-29T07:13:38.958Z,4.4
2023-03-29T07:14:39.362Z,4.5
2023-03-29T07:15:39.748Z,4.5
2023-03-29T07:16:40.163Z,4.5
2023-03-29T07:17:40.752Z,4.5
2023-03-29T07:18:41.172Z,4.5
2023-03-29T07:19:41.555Z,4.5
2023-03-29T07:20:41.952Z,4.5
2023-03-29T07:21:42.325Z,4.5
2023-03-29T07:22:42.734Z,4.5
2023-03-29T07:23:43.142Z,4.5
2023-03-29T07:24:43.530Z,4.6
2023-03-29T07:25:43.950Z,4.6
2023-03-29T07:27:00.068Z,4.6
2023-03-29T07:28:04.090Z,4.6
2023-03-29T07:29:04.498Z,4.7
2023-03-29T07:30:04.867Z,4.7
2023-03-29T07:31:05.310Z,4.7
2023-03-29T07:32:05.694Z,4.8
2023-03-29T07:33:06.198Z,4.8
2023-03-29T07:34:06.638Z,4.8
2023-03-29T07:35:07.041Z,4.9
2023-03-29T07:36:07.520Z,4.9
2023-03-29T07:37:07.915Z,4.9
2023-03-29T07:38:08.604Z,5
2023-03-29T07:39:08.997Z,5
2023-03-29T07:40:09.450Z,5
2023-03-29T07:41:09.897Z,5.1
2023-03-29T07:42:10.275Z,5.1
2023-03-29T07:43:10.678Z,5.2
2023-03-29T07:44:11.054Z,5.2
2023-03-29T07:45:11.438Z,5.2
2023-03-29T07:46:11.898Z,5.2
2023-03-29T07:47:12.308Z,5.3
2023-03-29T07:48:12.796Z,5.3
2023-03-29T07:49:13.281Z,5.3
2023-03-29T07:50:13.670Z,5.4
2023-03-29T07:51:14.080Z,5.4
2023-03-29T07:52:14.474Z,5.4
2023-03-29T07:53:15.185Z,5.4
2023-03-29T07:54:15.576Z,5.4
2023-03-29T07:55:15.994Z,5.4
2023-03-29T07:56:16.677Z,5.5
2023-03-29T07:57:17.119Z,5.5
2023-03-29T07:58:17.604Z,5.5
2023-03-29T07:59:18.063Z,5.5
2023-03-29T08:00:18.508Z,5.5
2023-03-29T08:01:19.609Z,5.6
2023-03-29T08:02:20.418Z,5.6
2023-03-29T08:03:20.969Z,5.6
2023-03-29T08:04:21.547Z,5.7
2023-03-29T08:05:37.817Z,5.7
2023-03-29T08:06:40.798Z,5.7
2023-03-29T08:07:41.188Z,5.8
2023-03-29T08:08:41.877Z,5.8
2023-03-29T08:09:42.263Z,5.9
2023-03-29T08:10:42.742Z,5.9
2023-03-29T08:11:43.387Z,5.9
2023-03-29T08:12:43.761Z,5.9
2023-03-29T08:13:44.587Z,6
2023-03-29T08:14:45.052Z,6
2023-03-29T08:15:45.488Z,6
2023-03-29T08:16:46.024Z,6
2023-03-29T08:17:46.509Z,6
2023-03-29T08:18:47.058Z,6
2023-03-29T08:19:50.921Z,6
2023-03-29T08:20:51.848Z,6
2023-03-29T08:21:52.240Z,6.1
2023-03-29T08:22:52.618Z,6.1
2023-03-29T08:23:53.433Z,6.1
2023-03-29T08:24:53.808Z,6.1
2023-03-29T08:25:54.199Z,6.1
2023-03-29T08:26:54.885Z,6.1
2023-03-29T08:27:55.299Z,6.1
2023-03-29T08:28:56.100Z,6.1
2023-03-29T08:29:56.485Z,6.1
2023-03-29T08:30:56.872Z,6.1
2023-03-29T08:31:57.285Z,6.2
2023-03-29T08:32:57.716Z,6.2
2023-03-29T08:33:58.403Z,6.2
2023-03-29T08:34:58.799Z,6.2
2023-03-29T08:35:59.259Z,6.2
2023-03-29T08:36:59.663Z,6.3
2023-03-29T08:38:00.065Z,6.3
2023-03-29T08:39:00.844Z,6.3
2023-03-29T08:40:01.218Z,6.3
2023-03-29T08:41:01.803Z,6.4
2023-03-29T08:42:02.662Z,6.4
2023-03-29T08:43:03.070Z,6.4
2023-03-29T08:44:03.775Z,6.4
2023-03-29T08:45:04.172Z,6.4
2023-03-29T08:46:04.631Z,6.4
2023-03-29T08:47:05.133Z,6.5
2023-03-29T08:48:05.622Z,6.5
2023-03-29T08:49:06.495Z,6.5
2023-03-29T08:50:06.893Z,6.5
2023-03-29T08:51:09.824Z,6.6
2023-03-29T08:52:10.529Z,6.6
2023-03-29T08:53:10.926Z,6.6
2023-03-29T08:54:11.632Z,6.7
2023-03-29T08:55:12.021Z,6.7
2023-03-29T08:56:12.430Z,6.7
2023-03-29T08:57:13.375Z,6.7
2023-03-29T08:58:13.797Z,6.8
2023-03-29T08:59:14.530Z,6.8
2023-03-29T09:00:14.927Z,6.9
2023-03-29T09:01:15.341Z,6.9
2023-03-29T09:02:15.818Z,6.9
2023-03-29T09:03:16.286Z,7
2023-03-29T09:04:17.237Z,7
2023-03-29T09:05:17.617Z,7
2023-03-29T09:06:18.049Z,7.1
2023-03-29T09:07:18.424Z,7.1
2023-03-29T09:08:18.788Z,7.1
2023-03-29T09:09:19.203Z,7.2
2023-03-29T09:10:19.635Z,7.2
2023-03-29T09:11:20.009Z,7.3
2023-03-29T09:12:20.410Z,7.3
2023-03-29T09:13:20.894Z,7.3
2023-03-29T09:14:21.711Z,7.4
2023-03-29T09:15:22.119Z,7.4
2023-03-29T09:16:22.533Z,7.5
2023-03-29T09:17:22.918Z,7.5
2023-03-29T09:18:23.278Z,7.5
2023-03-29T09:19:24.061Z,7.6
2023-03-29T09:20:24.456Z,7.6
2023-03-29T09:21:24.835Z,7.7
2023-03-29T09:22:25.226Z,7.8
2023-03-29T09:23:25.600Z,7.8
2023-03-29T09:24:26.345Z,7.9
2023-03-29T09:25:26.716Z,7.9
2023-03-29T09:26:27.099Z,8
2023-03-29T09:27:27.580Z,8
2023-03-29T09:28:27.986Z,8.1
2023-03-29T09:29:28.682Z,8.1
2023-03-29T09:30:29.074Z,8.1
2023-03-29T09:31:29.503Z,8.2
2023-03-29T09:32:29.942Z,8.2
2023-03-29T09:33:30.360Z,8.2
2023-03-29T09:34:31.023Z,8.2
2023-03-29T09:35:31.468Z,8.3
2023-03-29T09:36:31.878Z,8.3
2023-03-29T09:37:32.227Z,8.3
2023-03-29T09:38:32.605Z,8.3
2023-03-29T09:39:33.534Z,8.3
2023-03-29T09:40:33.941Z,8.3
2023-03-29T09:41:34.319Z,8.3
2023-03-29T09:42:35.050Z,8.3
2023-03-29T09:43:35.434Z,8.3
2023-03-29T09:44:36.211Z,8.3
2023-03-29T09:45:36.653Z,8.3
2023-03-29T09:46:37.049Z,8.4
2023-03-29T09:47:37.455Z,8.4
2023-03-29T09:48:37.935Z,8.4
2023-03-29T09:49:38.609Z,8.4
2023-03-29T09:50:39.144Z,8.5
2023-03-29T09:51:39.526Z,8.5
2023-03-29T09:52:39.947Z,8.5
2023-03-29T09:53:40.321Z,8.5
2023-03-29T09:54:41.058Z,8.5
2023-03-29T09:55:41.437Z,8.5
2023-03-29T09:56:42.057Z,8.5
2023-03-29T09:57:42.759Z,8.5
2023-03-29T09:58:43.180Z,8.6
2023-03-29T09:59:43.998Z,8.6
2023-03-29T10:00:44.395Z,8.6
2023-03-29T10:01:44.801Z,8.6
2023-03-29T10:02:45.238Z,8.6
2023-03-29T10:03:45.717Z,8.6
2023-03-29T10:04:46.506Z,8.7
2023-03-29T10:05:47.028Z,8.7
2023-03-29T10:06:47.431Z,8.7
2023-03-29T10:07:47.796Z,8.8
2023-03-29T10:08:48.168Z,8.8
2023-03-29T10:09:48.868Z,8.9
2023-03-29T10:10:49.263Z,9
2023-03-29T10:11:49.652Z,9
2023-03-29T10:12:50.509Z,9
2023-03-29T10:13:50.933Z,9.1
2023-03-29T10:14:53.587Z,9.1
2023-03-29T10:15:54.452Z,9.2
2023-03-29T10:16:54.921Z,9.2
2023-03-29T10:17:55.360Z,9.3
2023-03-29T10:18:55.775Z,9.3
2023-03-29T10:19:56.583Z,9.3
2023-03-29T10:20:56.970Z,9.4
2023-03-29T10:21:57.357Z,9.4
2023-03-29T10:22:57.710Z,9.4
2023-03-29T10:23:58.106Z,9.5
2023-03-29T10:24:58.801Z,9.5
2023-03-29T10:25:59.196Z,9.5
2023-03-29T10:26:59.602Z,9.4
2023-03-29T10:28:00.012Z,9.4
2023-03-29T10:29:00.414Z,9.4
2023-03-29T10:30:01.166Z,9.5
2023-03-29T10:31:01.799Z,9.5
2023-03-29T10:32:02.503Z,9.5
2023-03-29T10:33:02.965Z,9.6
2023-03-29T10:34:03.370Z,9.6
2023-03-29T10:35:04.294Z,9.7
2023-03-29T10:36:04.724Z,9.7
2023-03-29T10:37:05.140Z,9.8
2023-03-29T10:38:05.519Z,9.9
2023-03-29T10:39:06.504Z,9.9
2023-03-29T10:40:07.267Z,9.9
2023-03-29T10:41:07.660Z,10
2023-03-29T10:42:08.031Z,10.1
2023-03-29T10:43:08.811Z,10.1
2023-03-29T10:44:09.194Z,10.1
2023-03-29T10:45:09.954Z,10.2
2023-03-29T10:46:10.362Z,10.3
2023-03-29T10:47:10.776Z,10.3
2023-03-29T10:48:11.184Z,10.3
2023-03-29T10:49:11.577Z,10.3
2023-03-29T10:50:12.433Z,10.3
2023-03-29T10:51:12.813Z,10.3
2023-03-29T10:52:13.177Z,10.4
2023-03-29T10:53:13.560Z,10.4
2023-03-29T10:54:13.961Z,10.4
2023-03-29T10:55:14.740Z,10.3
2023-03-29T10:56:15.119Z,10.3
2023-03-29T10:57:15.557Z,10.3
2023-03-29T10:58:16.410Z,10.3
2023-03-29T10:59:16.780Z,10.3
2023-03-29T11:00:17.450Z,10.2
2023-03-29T11:01:17.901Z,10.2
2023-03-29T11:02:18.359Z,10.2
2023-03-29T11:03:20.989Z,10.3
2023-03-29T11:04:22.058Z,10.3
2023-03-29T11:05:22.812Z,10.4
2023-03-29T11:06:23.189Z,10.4
2023-03-29T11:07:23.557Z,10.4
2023-03-29T11:08:23.924Z,10.5
2023-03-29T11:09:24.311Z,10.5
2023-03-29T11:10:25.046Z,10.5
2023-03-29T11:11:25.424Z,10.6
2023-03-29T11:12:25.802Z,10.6
2023-03-29T11:13:26.584Z,10.6
2023-03-29T11:14:26.958Z,10.6
2023-03-29T11:15:27.739Z,10.5
2023-03-29T11:16:28.317Z,10.5
2023-03-29T11:17:28.763Z,10.5
2023-03-29T11:18:29.188Z,10.5
2023-03-29T11:19:29.580Z,10.6
2023-03-29T11:20:30.356Z,10.6
2023-03-29T11:21:30.747Z,10.6
2023-03-29T11:22:31.151Z,10.6
2023-03-29T11:23:31.555Z,10.6
2023-03-29T11:24:31.917Z,10.6
2023-03-29T11:25:32.634Z,10.7
2023-03-29T11:26:33.018Z,10.8
2023-03-29T11:27:33.396Z,10.9
2023-03-29T11:28:34.082Z,10.9
2023-03-29T11:29:34.526Z,11
2023-03-29T11:30:35.380Z,11.1
2023-03-29T11:31:37.985Z,11.1
2023-03-29T11:32:39.366Z,11.2
2023-03-29T11:33:39.809Z,11.2
2023-03-29T11:34:40.189Z,11.2
2023-03-29T11:35:40.996Z,11.3
2023-03-29T11:36:41.454Z,11.3
2023-03-29T11:37:41.845Z,11.4
2023-03-29T11:38:44.021Z,11.4
2023-03-29T11:39:45.639Z,11.4
2023-03-29T11:40:46.265Z,11.4
2023-03-29T11:41:46.660Z,11.4
2023-03-29T11:42:47.026Z,11.4
2023-03-29T11:43:47.750Z,11.4
2023-03-29T11:44:48.160Z,11.4
2023-03-29T11:45:48.933Z,11.5
2023-03-29T11:46:49.369Z,11.5
2023-03-29T11:47:49.865Z,11.4
2023-03-29T11:48:50.260Z,11.4
2023-03-29T11:49:50.633Z,11.4
2023-03-29T11:50:51.562Z,11.4
2023-03-29T11:51:51.961Z,11.4
2023-03-29T11:52:52.357Z,11.4
2023-03-29T11:53:52.750Z,11.4
2023-03-29T11:54:53.154Z,11.5
2023-03-29T11:55:53.924Z,11.5
2023-03-29T11:56:54.347Z,11.6
2023-03-29T11:57:54.745Z,11.6
2023-03-29T11:58:55.494Z,11.7
2023-03-29T11:59:55.887Z,11.7
2023-03-29T12:00:56.601Z,11.7
2023-03-29T12:01:57.025Z,11.7
2023-03-29T12:02:57.499Z,11.7
2023-03-29T12:03:58.022Z,11.7
2023-03-29T12:04:58.514Z,11.7
2023-03-29T12:05:59.275Z,11.7
2023-03-29T12:06:59.676Z,11.6
2023-03-29T12:08:00.125Z,11.5
2023-03-29T12:09:00.514Z,11.5
2023-03-29T12:10:00.912Z,11.5
2023-03-29T12:11:01.804Z,11.5
2023-03-29T12:12:02.392Z,11.4
2023-03-29T12:13:02.779Z,11.4
2023-03-29T12:14:03.196Z,11.4
2023-03-29T12:15:03.579Z,11.4
2023-03-29T12:16:04.301Z,11.4
2023-03-29T12:17:05.643Z,11.4
2023-03-29T12:18:06.256Z,11.5
2023-03-29T12:19:06.669Z,11.5
2023-03-29T12:20:07.050Z,11.5
2023-03-29T12:21:08.056Z,11.5
2023-03-29T12:22:08.542Z,11.6
2023-03-29T12:23:08.942Z,11.6
2023-03-29T12:24:09.338Z,11.6
2023-03-29T12:25:10.460Z,11.6
2023-03-29T12:26:11.366Z,11.6
2023-03-29T12:27:11.742Z,11.6
2023-03-29T12:28:12.175Z,11.6
2023-03-29T12:29:12.863Z,11.6
2023-03-29T12:30:13.235Z,11.6
2023-03-29T12:31:14.110Z,11.7
2023-03-29T12:32:14.525Z,11.7
2023-03-29T12:33:16.106Z,11.7
2023-03-29T12:34:16.548Z,11.7
2023-03-29T12:35:16.928Z,11.7
2023-03-29T12:36:17.788Z,11.7
2023-03-29T12:37:18.223Z,11.8
2023-03-29T12:38:18.588Z,11.8
2023-03-29T12:39:18.987Z,11.8
2023-03-29T12:40:19.373Z,11.8
2023-03-29T12:41:20.194Z,11.9
2023-03-29T12:42:20.617Z,11.9
2023-03-29T12:43:21.014Z,11.9
2023-03-29T12:44:21.627Z,11.9
2023-03-29T12:45:21.977Z,11.9
2023-03-29T12:46:23.064Z,11.9
2023-03-29T12:47:23.583Z,11.9
2023-03-29T12:48:23.972Z,12
2023-03-29T12:49:24.365Z,12
2023-03-29T12:50:24.761Z,12
2023-03-29T12:51:25.547Z,12.1
2023-03-29T12:52:25.925Z,12.1
2023-03-29T12:53:26.334Z,12.2
2023-03-29T12:54:28.175Z,12.2
2023-03-29T12:55:28.705Z,12.2
2023-03-29T12:56:29.466Z,12.3
2023-03-29T12:57:29.819Z,12.3
2023-03-29T12:58:30.211Z,12.4
2023-03-29T12:59:30.935Z,12.4
2023-03-29T13:00:31.310Z,12.4
2023-03-29T13:01:32.103Z,12.4
2023-03-29T13:02:32.701Z,12.4
2023-03-29T13:03:33.145Z,12.4
2023-03-29T13:04:33.514Z,12.3
2023-03-29T13:05:33.980Z,12.3
2023-03-29T13:06:34.798Z,12.2
2023-03-29T13:07:35.206Z,12.2
2023-03-29T13:08:35.716Z,12.1
2023-03-29T13:09:36.141Z,12.1
2023-03-29T13:10:36.518Z,12.1
2023-03-29T13:11:37.235Z,12
2023-03-29T13:12:37.616Z,12
2023-03-29T13:13:37.995Z,12
2023-03-29T13:14:38.716Z,12
2023-03-29T13:15:39.127Z,12.1
2023-03-29T13:16:39.823Z,12.1
2023-03-29T13:17:40.232Z,12.1
2023-03-29T13:18:40.664Z,12.1
2023-03-29T13:19:41.040Z,12
2023-03-29T13:20:41.431Z,12
2023-03-29T13:21:42.245Z,12
2023-03-29T13:22:42.626Z,12
2023-03-29T13:23:43.059Z,12
2023-03-29T13:24:43.438Z,12
2023-03-29T13:25:43.819Z,12
2023-03-29T13:26:44.498Z,12
2023-03-29T13:27:44.896Z,12
2023-03-29T13:28:45.299Z,12
2023-03-29T13:29:46.098Z,12
2023-03-29T13:30:46.486Z,12
2023-03-29T13:31:47.343Z,12
2023-03-29T13:32:47.848Z,12.1
2023-03-29T13:33:48.254Z,12
2023-03-29T13:34:48.627Z,12.1
2023-03-29T13:35:49.146Z,12.1
2023-03-29T13:36:49.850Z,12.1
2023-03-29T13:37:50.239Z,12.2
2023-03-29T13:38:50.686Z,12.2
2023-03-29T13:39:51.064Z,12.2
2023-03-29T13:40:51.447Z,12.2
2023-03-29T13:41:52.226Z,12.2
2023-03-29T13:42:52.685Z,12.2
2023-03-29T13:43:53.087Z,12.2
2023-03-29T13:44:54.105Z,12.2
2023-03-29T13:45:54.547Z,12.2
2023-03-29T13:46:55.366Z,12.1
2023-03-29T13:48:04.574Z,12.1
2023-03-29T13:49:06.020Z,12.1
2023-03-29T13:50:06.535Z,12.1
2023-03-29T13:51:06.973Z,12.1
2023-03-29T13:52:07.657Z,12.1
2023-03-29T13:53:08.033Z,12.1
2023-03-29T13:54:08.441Z,12.1
2023-03-29T13:55:08.825Z,12.1